PHTO/ITO METAR and TAF weather

Enter ICAO airport designator
Station Type Date Time Source
PHTO METAR 2019/05/19 20:53 UTC NOAA

PHTO 192053Z 05010KT 10SM FEW031 31/19 A3010 RMK AO2 SLP190 T03060189 50001


Station Type Date Time Source
PHTO Decoded METAR 2019/05/19 20:53 UTC NOAA

HILO INTERNATIONAL AIRPORT, HI, United States (PHTO) 19-43N 155-03W 12M
May 19, 2019 - 04:53 PM EDT / 2019.05.19 2053 UTC
Wind: from the NE (050 degrees) at 12 MPH (10 KT):0
Visibility: 10 mile(s):0
Sky conditions: mostly clear
Temperature: 87.1 F (30.6 C)
Dew Point: 66.0 F (18.9 C)
Relative Humidity: 49%
Pressure (altimeter): 30.1 in. Hg (1019 hPa)
Pressure tendency: 0.00 inches (0.1 hPa) higher than three hours ago
ob: PHTO 192053Z 05010KT 10SM FEW031 31/19 A3010 RMK AO2 SLP190 T03060189 50001
cycle: 21

Station Type Date Time Source
PHTO TAF 2019/05/19 18:36 UTC NOAA

TAF PHTO 191735Z 1918/2018 24005KT P6SM VCSH SCT025 BKN045
FM192000 07010KT P6SM SCT025 SCT040
FM200500 24005KT P6SM VCSH SCT025 BKN040

Example: see airport list